Time,TemperatureF,DewpointF,PressureIn,WindDirection,WindDirectionDegrees,WindSpeedMPH,WindSpeedGustMPH,Humidity,HourlyPrecipIn,Conditions,Clouds,dailyrainin,SoftwareType,DateUTC
2013-04-30 00:00:00,70.0,-99.9,29.82,ESE,108,13.0,16.0,-999,-99.99,,,-99.99,,2013-04-30 05:00:00,
2013-04-30 00:32:00,70.0,-99.9,29.82,ESE,108,13.0,16.0,-999,-99.99,,,-99.99,,2013-04-30 05:32:00,
2013-04-30 00:42:00,70.0,-99.9,29.82,ESE,108,13.0,16.0,-999,-99.99,,,-99.99,,2013-04-30 05:42:00,
2013-04-30 00:51:00,70.0,-99.9,29.82,ESE,108,13.0,16.0,-999,-99.99,,,-99.99,,2013-04-30 05:51:00,
2013-04-30 01:00:00,70.0,-99.9,29.81,SE,128,14.0,18.0,-999,-99.99,,,-99.99,,2013-04-30 06:00:00,
2013-04-30 01:32:00,70.0,-99.9,29.81,SE,128,14.0,18.0,-999,-99.99,,,-99.99,,2013-04-30 06:32:00,
2013-04-30 01:42:00,70.0,-99.9,29.81,SE,128,14.0,18.0,-999,-99.99,,,-99.99,,2013-04-30 06:42:00,
2013-04-30 01:52:00,70.0,-99.9,29.81,SE,128,14.0,18.0,-999,-99.99,,,-99.99,,2013-04-30 06:52:00,
2013-04-30 02:00:00,70.0,-99.9,29.80,SE,143,15.0,20.0,-999,-99.99,,,-99.99,,2013-04-30 07:00:00,
2013-04-30 02:32:00,70.0,-99.9,29.80,SE,143,15.0,20.0,-999,-99.99,,,-99.99,,2013-04-30 07:32:00,
2013-04-30 02:42:00,70.0,-99.9,29.80,SE,143,15.0,20.0,-999,-99.99,,,-99.99,,2013-04-30 07:42:00,
2013-04-30 02:52:00,70.0,-99.9,29.80,SE,143,15.0,20.0,-999,-99.99,,,-99.99,,2013-04-30 07:52:00,
2013-04-30 03:00:00,69.0,-99.9,29.77,ESE,105,6.0,8.0,-999,-99.99,,,-99.99,,2013-04-30 08:00:00,
2013-04-30 03:32:00,69.0,-99.9,29.77,ESE,105,6.0,8.0,-999,-99.99,,,-99.99,,2013-04-30 08:32:00,
2013-04-30 03:42:00,69.0,-99.9,29.77,ESE,105,6.0,8.0,-999,-99.99,,,-99.99,,2013-04-30 08:42:00,
2013-04-30 03:52:00,69.0,-99.9,29.77,ESE,105,6.0,8.0,-999,-99.99,,,-99.99,,2013-04-30 08:52:00,
2013-04-30 04:00:00,69.0,-99.9,29.78,East,98,8.0,9.0,-999,-99.99,,,-99.99,,2013-04-30 09:00:00,
2013-04-30 04:33:00,69.0,-99.9,29.78,East,98,8.0,9.0,-999,-99.99,,,-99.99,,2013-04-30 09:33:00,
2013-04-30 04:43:00,69.0,-99.9,29.78,East,98,8.0,9.0,-999,-99.99,,,-99.99,,2013-04-30 09:43:00,
2013-04-30 04:52:00,69.0,-99.9,29.78,East,98,8.0,9.0,-999,-99.99,,,-99.99,,2013-04-30 09:52:00,
2013-04-30 05:00:00,70.0,-99.9,29.75,ESE,123,12.0,17.0,-999,-99.99,,,-99.99,,2013-04-30 10:00:00,
2013-04-30 05:33:00,70.0,-99.9,29.75,ESE,123,12.0,17.0,-999,-99.99,,,-99.99,,2013-04-30 10:33:00,
2013-04-30 05:41:00,70.0,-99.9,29.75,ESE,123,12.0,17.0,-999,-99.99,,,-99.99,,2013-04-30 10:41:00,
2013-04-30 05:52:00,70.0,-99.9,29.75,ESE,123,12.0,17.0,-999,-99.99,,,-99.99,,2013-04-30 10:52:00,
2013-04-30 06:00:00,70.0,-99.9,29.80,East,89,6.0,6.0,-999,-99.99,,,-99.99,,2013-04-30 11:00:00,
2013-04-30 06:32:00,70.0,-99.9,29.80,East,89,6.0,6.0,-999,-99.99,,,-99.99,,2013-04-30 11:32:00,
2013-04-30 06:42:00,70.0,-99.9,29.80,East,89,6.0,6.0,-999,-99.99,,,-99.99,,2013-04-30 11:42:00,
2013-04-30 06:52:00,70.0,-99.9,29.80,East,89,6.0,6.0,-999,-99.99,,,-99.99,,2013-04-30 11:52:00,
2013-04-30 07:00:00,70.0,-99.9,29.79,ESE,123,9.0,10.0,-999,-99.99,,,-99.99,,2013-04-30 12:00:00,
2013-04-30 07:31:00,70.0,-99.9,29.79,ESE,123,9.0,10.0,-999,-99.99,,,-99.99,,2013-04-30 12:31:00,
2013-04-30 07:42:00,70.0,-99.9,29.79,ESE,123,9.0,10.0,-999,-99.99,,,-99.99,,2013-04-30 12:42:00,
2013-04-30 07:51:00,70.0,-99.9,29.79,ESE,123,9.0,10.0,-999,-99.99,,,-99.99,,2013-04-30 12:51:00,
2013-04-30 08:00:00,71.0,-99.9,29.79,SSE,147,6.0,8.0,-999,-99.99,,,-99.99,,2013-04-30 13:00:00,
2013-04-30 08:31:00,71.0,-99.9,29.79,SSE,147,6.0,8.0,-999,-99.99,,,-99.99,,2013-04-30 13:31:00,
2013-04-30 08:41:00,71.0,-99.9,29.79,SSE,147,6.0,8.0,-999,-99.99,,,-99.99,,2013-04-30 13:41:00,
2013-04-30 08:52:00,71.0,-99.9,29.79,SSE,147,6.0,8.0,-999,-99.99,,,-99.99,,2013-04-30 13:52:00,
2013-04-30 09:00:00,72.0,-99.9,29.80,South,173,9.0,9.0,-999,-99.99,,,-99.99,,2013-04-30 14:00:00,
2013-04-30 09:21:00,72.0,-99.9,29.80,South,173,9.0,9.0,-999,-99.99,,,-99.99,,2013-04-30 14:21:00,
2013-04-30 09:31:00,72.0,-99.9,29.80,South,173,9.0,9.0,-999,-99.99,,,-99.99,,2013-04-30 14:31:00,
2013-04-30 09:41:00,72.0,-99.9,29.80,South,173,9.0,9.0,-999,-99.99,,,-99.99,,2013-04-30 14:41:00,
2013-04-30 09:52:00,72.0,-99.9,29.80,South,173,9.0,9.0,-999,-99.99,,,-99.99,,2013-04-30 14:52:00,
2013-04-30 10:00:00,71.0,-99.9,29.81,SSE,158,10.0,12.0,-999,-99.99,,,-99.99,,2013-04-30 15:00:00,
2013-04-30 10:32:00,71.0,-99.9,29.81,SSE,158,10.0,12.0,-999,-99.99,,,-99.99,,2013-04-30 15:32:00,
2013-04-30 10:42:00,71.0,-99.9,29.81,SSE,158,10.0,12.0,-999,-99.99,,,-99.99,,2013-04-30 15:42:00,
2013-04-30 10:53:00,71.0,-99.9,29.81,SSE,158,10.0,12.0,-999,-99.99,,,-99.99,,2013-04-30 15:53:00,
2013-04-30 11:00:00,72.0,-99.9,29.82,SSE,148,10.0,12.0,-999,-99.99,,,-99.99,,2013-04-30 16:00:00,
2013-04-30 11:33:00,72.0,-99.9,29.82,SSE,148,10.0,12.0,-999,-99.99,,,-99.99,,2013-04-30 16:33:00,
2013-04-30 11:42:00,72.0,-99.9,29.82,SSE,148,10.0,12.0,-999,-99.99,,,-99.99,,2013-04-30 16:42:00,
2013-04-30 11:53:00,72.0,-99.9,29.82,SSE,148,10.0,12.0,-999,-99.99,,,-99.99,,2013-04-30 16:53:00,
2013-04-30 12:00:00,71.0,-99.9,29.82,SSE,156,12.0,13.0,-999,-99.99,,,-99.99,,2013-04-30 17:00:00,
2013-04-30 12:32:00,71.0,-99.9,29.82,SSE,156,12.0,13.0,-999,-99.99,,,-99.99,,2013-04-30 17:32:00,
2013-04-30 12:42:00,71.0,-99.9,29.82,SSE,156,12.0,13.0,-999,-99.99,,,-99.99,,2013-04-30 17:42:00,
2013-04-30 12:53:00,71.0,-99.9,29.82,SSE,156,12.0,13.0,-999,-99.99,,,-99.99,,2013-04-30 17:53:00,
2013-04-30 13:00:00,73.0,-99.9,29.79,SE,138,10.0,11.0,-999,-99.99,,,-99.99,,2013-04-30 18:00:00,
2013-04-30 13:32:00,73.0,-99.9,29.79,SE,138,10.0,11.0,-999,-99.99,,,-99.99,,2013-04-30 18:32:00,
2013-04-30 13:42:00,73.0,-99.9,29.79,SE,138,10.0,11.0,-999,-99.99,,,-99.99,,2013-04-30 18:42:00,
2013-04-30 13:52:00,73.0,-99.9,29.79,SE,138,10.0,11.0,-999,-99.99,,,-99.99,,2013-04-30 18:52:00,
2013-04-30 14:00:00,73.0,-99.9,29.77,SE,144,9.0,10.0,-999,-99.99,,,-99.99,,2013-04-30 19:00:00,
2013-04-30 14:32:00,73.0,-99.9,29.77,SE,144,9.0,10.0,-999,-99.99,,,-99.99,,2013-04-30 19:32:00,
2013-04-30 14:42:00,73.0,-99.9,29.77,SE,144,9.0,10.0,-999,-99.99,,,-99.99,,2013-04-30 19:42:00,
2013-04-30 14:52:00,73.0,-99.9,29.77,SE,144,9.0,10.0,-999,-99.99,,,-99.99,,2013-04-30 19:52:00,
2013-04-30 15:00:00,73.0,-99.9,29.76,SE,141,8.0,9.0,-999,-99.99,,,-99.99,,2013-04-30 20:00:00,
2013-04-30 15:32:00,73.0,-99.9,29.76,SE,141,8.0,9.0,-999,-99.99,,,-99.99,,2013-04-30 20:32:00,
2013-04-30 15:42:00,73.0,-99.9,29.76,SE,141,8.0,9.0,-999,-99.99,,,-99.99,,2013-04-30 20:42:00,
2013-04-30 15:52:00,73.0,-99.9,29.76,SE,141,8.0,9.0,-999,-99.99,,,-99.99,,2013-04-30 20:52:00,
2013-04-30 16:00:00,74.0,-99.9,29.75,ESE,122,13.0,16.0,-999,-99.99,,,-99.99,,2013-04-30 21:00:00,
2013-04-30 16:32:00,74.0,-99.9,29.75,ESE,122,13.0,16.0,-999,-99.99,,,-99.99,,2013-04-30 21:32:00,
2013-04-30 16:42:00,74.0,-99.9,29.75,ESE,122,13.0,16.0,-999,-99.99,,,-99.99,,2013-04-30 21:42:00,
2013-04-30 16:53:00,74.0,-99.9,29.75,ESE,122,13.0,16.0,-999,-99.99,,,-99.99,,2013-04-30 21:53:00,
2013-04-30 17:00:00,74.0,-99.9,29.74,SE,129,14.0,16.0,-999,-99.99,,,-99.99,,2013-04-30 22:00:00,
2013-04-30 17:33:00,74.0,-99.9,29.74,SE,129,14.0,16.0,-999,-99.99,,,-99.99,,2013-04-30 22:33:00,
2013-04-30 17:42:00,74.0,-99.9,29.74,SE,129,14.0,16.0,-999,-99.99,,,-99.99,,2013-04-30 22:42:00,
2013-04-30 17:53:00,74.0,-99.9,29.74,SE,129,14.0,16.0,-999,-99.99,,,-99.99,,2013-04-30 22:53:00,
2013-04-30 18:00:00,75.0,-99.9,29.74,ESE,117,13.0,16.0,-999,-99.99,,,-99.99,,2013-04-30 23:00:00,
2013-04-30 18:32:00,75.0,-99.9,29.74,ESE,117,13.0,16.0,-999,-99.99,,,-99.99,,2013-04-30 23:32:00,
2013-04-30 18:42:00,75.0,-99.9,29.74,ESE,117,13.0,16.0,-999,-99.99,,,-99.99,,2013-04-30 23:42:00,
2013-04-30 18:52:00,75.0,-99.9,29.74,ESE,117,13.0,16.0,-999,-99.99,,,-99.99,,2013-04-30 23:52:00,
2013-04-30 19:00:00,73.0,-99.9,29.74,SE,125,17.0,19.0,-999,-99.99,,,-99.99,,2013-05-01 00:00:00,
2013-04-30 19:32:00,73.0,-99.9,29.74,SE,125,17.0,19.0,-999,-99.99,,,-99.99,,2013-05-01 00:32:00,
2013-04-30 19:42:00,73.0,-99.9,29.74,SE,125,17.0,19.0,-999,-99.99,,,-99.99,,2013-05-01 00:42:00,
2013-04-30 19:52:00,73.0,-99.9,29.74,SE,125,17.0,19.0,-999,-99.99,,,-99.99,,2013-05-01 00:52:00,
2013-04-30 20:00:00,72.0,-99.9,29.75,SE,143,14.0,18.0,-999,-99.99,,,-99.99,,2013-05-01 01:00:00,
2013-04-30 20:32:00,72.0,-99.9,29.75,SE,143,14.0,18.0,-999,-99.99,,,-99.99,,2013-05-01 01:32:00,
2013-04-30 20:42:00,72.0,-99.9,29.75,SE,143,14.0,18.0,-999,-99.99,,,-99.99,,2013-05-01 01:42:00,
2013-04-30 20:53:00,72.0,-99.9,29.75,SE,143,14.0,18.0,-999,-99.99,,,-99.99,,2013-05-01 01:53:00,
2013-04-30 21:00:00,72.0,-99.9,29.76,SE,146,13.0,15.0,-999,-99.99,,,-99.99,,2013-05-01 02:00:00,
2013-04-30 21:32:00,72.0,-99.9,29.76,SE,146,13.0,15.0,-999,-99.99,,,-99.99,,2013-05-01 02:32:00,
2013-04-30 21:42:00,72.0,-99.9,29.76,SE,146,13.0,15.0,-999,-99.99,,,-99.99,,2013-05-01 02:42:00,
2013-04-30 21:52:00,72.0,-99.9,29.76,SE,146,13.0,15.0,-999,-99.99,,,-99.99,,2013-05-01 02:52:00,
2013-04-30 22:00:00,72.0,-99.9,29.79,SE,133,10.0,14.0,-999,-99.99,,,-99.99,,2013-05-01 03:00:00,
2013-04-30 22:33:00,72.0,-99.9,29.79,SE,133,10.0,14.0,-999,-99.99,,,-99.99,,2013-05-01 03:33:00,
2013-04-30 22:43:00,72.0,-99.9,29.79,SE,133,10.0,14.0,-999,-99.99,,,-99.99,,2013-05-01 03:43:00,
2013-04-30 22:53:00,72.0,-99.9,29.79,SE,133,10.0,14.0,-999,-99.99,,,-99.99,,2013-05-01 03:53:00,
2013-04-30 23:00:00,72.0,-99.9,29.78,SE,145,14.0,16.0,-999,-99.99,,,-99.99,,2013-05-01 04:00:00,
2013-04-30 23:32:00,72.0,-99.9,29.78,SE,145,14.0,16.0,-999,-99.99,,,-99.99,,2013-05-01 04:32:00,
2013-04-30 23:43:00,72.0,-99.9,29.78,SE,145,14.0,16.0,-999,-99.99,,,-99.99,,2013-05-01 04:43:00,
2013-04-30 23:52:00,72.0,-99.9,29.78,SE,145,14.0,16.0,-999,-99.99,,,-99.99,,2013-05-01 04:52:00,